RKTN/TAE METAR and TAF weather

Enter ICAO airport designator
Station Type Date Time Source
RKTN METAR 2019/11/18 11:00 UTC NOAA

RKTN 181100Z 30015KT 9999 FEW040 BKN200 08/M03 Q1020


Station Type Date Time Source
RKTN Decoded METAR 2019/11/18 11:00 UTC NOAA

Taegu Ab, Korea, South (RKTN) 35-54N 128-39E 37M
Nov 18, 2019 - 06:00 AM EST / 2019.11.18 1100 UTC
Wind: from the WNW (300 degrees) at 17 MPH (15 KT):0
Visibility: greater than 7 mile(s):0
Sky conditions: mostly cloudy
Temperature: 46 F (8 C)
Dew Point: 26 F (-3 C)
Relative Humidity: 45%
Pressure (altimeter): 30.12 in. Hg (1020 hPa)
ob: RKTN 181100Z 30015KT 9999 FEW040 BKN200 08/M03 Q1020
cycle: 11

Station Type Date Time Source
RKTN TAF 2019/11/18 12:06 UTC NOAA

TAF RKTN 181100Z 1812/1918 31008KT 9999 SCT040 BKN200 TN02/1821Z TX08/1906Z
BECMG 1815/1816 BKN040 BKN200

Example: see airport list